createdAt,value
2022-09-05T00:00:04.263Z,92.76
2022-09-05T00:02:52.830Z,92.18
2022-09-05T00:05:55.468Z,92.21
2022-09-05T00:08:39.551Z,92.11
2022-09-05T00:11:40.511Z,92.10
2022-09-05T00:14:16.258Z,91.86
2022-09-05T00:17:15.526Z,91.85
2022-09-05T00:24:21.740Z,91.85
2022-09-05T00:24:34.844Z,91.59
2022-09-05T00:25:50.150Z,92.34
2022-09-05T00:28:26.275Z,92.52
2022-09-05T00:31:54.466Z,92.49
2022-09-05T00:34:47.439Z,92.42
2022-09-05T00:37:27.396Z,92.41
2022-09-05T00:40:11.326Z,92.47
2022-09-05T00:42:45.571Z,92.05
2022-09-05T00:45:19.714Z,91.44
2022-09-05T00:47:53.002Z,91.66
2022-09-05T00:50:26.127Z,91.49
2022-09-05T00:53:07.563Z,91.47
2022-09-05T00:55:42.029Z,91.61
2022-09-05T00:58:27.389Z,93.16
2022-09-05T01:01:10.734Z,93.55
2022-09-05T01:04:05.702Z,94.27
2022-09-05T01:06:44.008Z,93.69
2022-09-05T01:09:17.818Z,93.75
2022-09-05T01:11:53.333Z,93.13
2022-09-05T01:14:44.125Z,93.58
2022-09-05T01:17:38.232Z,92.92
2022-09-05T01:20:19.210Z,92.75
2022-09-05T01:23:13.812Z,92.57
2022-09-05T01:25:55.269Z,93.42
2022-09-05T01:29:17.164Z,93.39
2022-09-05T01:31:27.537Z,92.84
2022-09-05T01:34:02.714Z,92.44
2022-09-05T01:36:46.056Z,92.50
2022-09-05T01:40:14.668Z,92.24
2022-09-05T01:42:15.193Z,92.55
2022-09-05T01:44:53.581Z,92.01
2022-09-05T01:47:31.641Z,91.97
2022-09-05T01:50:09.705Z,91.83
2022-09-05T01:52:59.836Z,92.55
2022-09-05T01:56:06.754Z,92.87
2022-09-05T01:58:50.392Z,93.36
2022-09-05T02:01:32.937Z,93.08
2022-09-05T02:04:21.207Z,93.37
2022-09-05T02:06:57.537Z,93.12
2022-09-05T02:10:07.269Z,93.20
2022-09-05T02:12:39.920Z,93.68
2022-09-05T02:15:14.350Z,92.66
2022-09-05T02:17:51.752Z,92.36
2022-09-05T02:20:24.327Z,92.03
2022-09-05T02:23:03.152Z,91.92
2022-09-05T02:26:02.526Z,92.21
2022-09-05T02:28:40.767Z,91.89
2022-09-05T02:31:19.691Z,91.69
2022-09-05T02:34:01.912Z,91.85
2022-09-05T02:36:38.355Z,91.18
2022-09-05T02:43:32.347Z,91.84
2022-09-05T02:45:10.559Z,92.62
2022-09-05T02:45:23.947Z,92.97
2022-09-05T02:47:55.138Z,92.60
2022-09-05T02:57:29.059Z,92.27
2022-09-05T02:57:35.086Z,92.57
2022-09-05T02:57:37.619Z,92.46
2022-09-05T02:59:36.931Z,92.68
2022-09-05T03:02:25.778Z,92.70
2022-09-05T03:05:04.320Z,93.20
2022-09-05T03:07:50.765Z,93.64
2022-09-05T03:10:47.061Z,92.98
2022-09-05T03:13:54.046Z,92.41
2022-09-05T03:17:01.556Z,92.19
2022-09-05T03:20:05.155Z,91.98
2022-09-05T03:22:55.024Z,91.51
2022-09-05T03:26:03.462Z,91.88
2022-09-05T03:28:59.256Z,92.10
2022-09-05T03:31:52.763Z,91.73
2022-09-05T03:35:08.407Z,92.35
2022-09-05T03:38:04.708Z,92.33
2022-09-05T03:40:57.308Z,92.85
2022-09-05T03:43:45.176Z,92.58
2022-09-05T03:46:29.061Z,92.41
2022-09-05T03:52:13.129Z,92.30
2022-09-05T03:57:10.995Z,92.31
2022-09-05T03:57:17.060Z,93.12
2022-09-05T03:58:55.286Z,92.91
2022-09-05T04:04:15.541Z,92.60
2022-09-05T04:08:08.622Z,92.34
2022-09-05T04:08:29.814Z,92.21
2022-09-05T04:09:54.336Z,92.75
2022-09-05T04:12:28.094Z,93.03
2022-09-05T04:14:59.516Z,92.44
2022-09-05T04:17:32.600Z,91.97
2022-09-05T04:20:08.071Z,91.76
2022-09-05T04:22:59.670Z,91.67
2022-09-05T04:25:45.306Z,91.80
2022-09-05T04:28:26.262Z,92.43
2022-09-05T04:31:01.033Z,92.18
2022-09-05T04:33:36.360Z,92.26
2022-09-05T04:36:18.129Z,92.73
2022-09-05T04:38:45.826Z,92.44
2022-09-05T04:41:16.422Z,92.21
2022-09-05T04:43:48.144Z,91.82
2022-09-05T04:46:21.675Z,91.63
2022-09-05T04:49:00.338Z,91.30
2022-09-05T04:52:03.158Z,91.46
2022-09-05T04:54:37.544Z,91.84
2022-09-05T04:57:16.728Z,92.01
2022-09-05T05:03:29.989Z,92.11
2022-09-05T05:05:42.271Z,91.50
2022-09-05T05:06:08.914Z,91.93
2022-09-05T05:08:38.781Z,91.69
2022-09-05T05:17:40.395Z,91.68
2022-09-05T05:18:00.115Z,91.38
2022-09-05T05:18:00.262Z,91.33
2022-09-05T05:19:45.914Z,91.88
2022-09-05T05:22:26.075Z,92.27
2022-09-05T05:24:56.683Z,91.94
2022-09-05T05:27:27.802Z,91.85
2022-09-05T05:30:00.737Z,91.65
2022-09-05T05:32:45.981Z,91.89
2022-09-05T05:35:18.873Z,91.70
2022-09-05T05:37:49.202Z,91.41
2022-09-05T05:40:21.655Z,91.68
2022-09-05T05:42:48.743Z,91.26
2022-09-05T05:45:18.867Z,92.56
2022-09-05T05:47:50.560Z,94.62
2022-09-05T05:50:32.381Z,95.08
2022-09-05T05:53:33.592Z,94.56
2022-09-05T05:56:25.614Z,92.96
2022-09-05T05:59:13.894Z,91.96
2022-09-05T06:02:08.510Z,91.26
2022-09-05T06:05:07.294Z,92.97
2022-09-05T06:08:33.877Z,93.22
2022-09-05T06:14:59.462Z,92.26
2022-09-05T06:15:01.050Z,90.93
2022-09-05T06:17:34.596Z,88.25
2022-09-05T06:22:09.540Z,86.25
2022-09-05T06:24:02.724Z,82.24
2022-09-05T06:27:00.188Z,81.41
2022-09-05T06:29:46.484Z,83.78
2022-09-05T06:32:30.308Z,84.84
2022-09-05T06:35:16.604Z,84.50
2022-09-05T06:37:57.151Z,82.81
2022-09-05T06:40:32.059Z,81.93
2022-09-05T06:43:12.629Z,80.87
2022-09-05T06:45:58.738Z,81.50
2022-09-05T06:48:44.333Z,80.79
2022-09-05T06:52:20.227Z,81.89
2022-09-05T06:55:21.104Z,83.02
2022-09-05T06:58:31.822Z,82.72
2022-09-05T07:01:00.285Z,82.59
2022-09-05T07:03:41.825Z,82.23
2022-09-05T07:06:19.278Z,81.28
2022-09-05T07:08:50.380Z,81.01
2022-09-05T07:11:21.039Z,81.60
2022-09-05T07:13:56.425Z,81.75
2022-09-05T07:16:37.643Z,80.38
2022-09-05T07:19:18.787Z,81.17
2022-09-05T07:22:06.810Z,79.65
2022-09-05T07:24:56.038Z,79.07
2022-09-05T07:27:33.877Z,78.52
2022-09-05T07:30:22.072Z,78.26
2022-09-05T07:32:52.591Z,78.33
2022-09-05T07:35:23.171Z,77.36
2022-09-05T07:38:00.140Z,76.21
2022-09-05T07:40:29.718Z,75.78
2022-09-05T07:43:10.151Z,74.95
2022-09-05T07:45:55.816Z,76.12
2022-09-05T07:48:35.283Z,76.15
2022-09-05T07:56:52.514Z,73.75
2022-09-05T07:56:55.103Z,74.77
2022-09-05T07:57:01.148Z,73.16
2022-09-05T07:59:34.271Z,72.05
2022-09-05T08:02:03.508Z,71.82
2022-09-05T08:04:32.334Z,71.38
2022-09-05T08:07:48.661Z,70.32
2022-09-05T08:10:08.378Z,69.59
2022-09-05T08:13:02.715Z,67.97
2022-09-05T08:15:40.999Z,69.48
2022-09-05T08:18:23.203Z,69.32
2022-09-05T08:20:54.605Z,68.83
2022-09-05T08:23:35.747Z,68.04
2022-09-05T08:26:09.059Z,68.01
2022-09-05T08:28:44.092Z,68.64
2022-09-05T08:31:15.602Z,68.69
2022-09-05T08:33:43.817Z,68.79
2022-09-05T08:36:21.353Z,68.59
2022-09-05T08:38:48.071Z,68.11
2022-09-05T08:41:30.056Z,66.60
2022-09-05T08:46:39.657Z,67.21
2022-09-05T08:47:24.612Z,65.50
2022-09-05T08:50:12.418Z,66.00
2022-09-05T08:52:52.441Z,65.17
2022-09-05T08:55:28.878Z,64.83
2022-09-05T08:58:15.473Z,63.14
2022-09-05T09:00:55.008Z,62.89
2022-09-05T09:03:29.299Z,63.48
2022-09-05T09:06:20.446Z,65.25
2022-09-05T09:09:06.374Z,64.61
2022-09-05T09:11:38.380Z,62.91
2022-09-05T09:14:34.620Z,61.40
2022-09-05T09:17:15.804Z,61.91
2022-09-05T09:19:48.452Z,61.19
2022-09-05T09:22:26.167Z,61.84
2022-09-05T09:25:14.436Z,60.96
2022-09-05T09:28:49.965Z,61.37
2022-09-05T09:31:10.266Z,62.89
2022-09-05T09:33:41.885Z,62.03
2022-09-05T09:36:16.296Z,64.66
2022-09-05T09:39:11.716Z,63.89
2022-09-05T09:42:02.988Z,62.20
2022-09-05T09:45:27.637Z,61.38
2022-09-05T09:48:31.322Z,60.78
2022-09-05T09:51:30.595Z,62.49
2022-09-05T09:54:12.184Z,63.91
2022-09-05T09:57:18.123Z,61.42
2022-09-05T10:00:03.224Z,61.23
2022-09-05T10:08:22.927Z,61.06
2022-09-05T10:10:56.164Z,59.84
2022-09-05T10:10:56.268Z,60.48
2022-09-05T10:15:30.710Z,61.60
2022-09-05T10:18:13.121Z,59.80
2022-09-05T10:21:16.413Z,59.91
2022-09-05T10:23:51.038Z,60.61
2022-09-05T10:26:55.593Z,59.79
2022-09-05T10:29:58.717Z,58.96
2022-09-05T10:35:11.772Z,59.08
2022-09-05T10:35:29.636Z,56.63
2022-09-05T10:37:59.110Z,56.87
2022-09-05T10:40:28.340Z,56.14
2022-09-05T10:43:01.446Z,56.87
2022-09-05T10:45:44.160Z,57.64
2022-09-05T10:48:15.202Z,57.60
2022-09-05T10:50:44.232Z,58.34
2022-09-05T10:53:31.141Z,56.18
2022-09-05T10:56:11.340Z,55.79
2022-09-05T11:02:21.919Z,56.35
2022-09-05T11:02:23.922Z,56.93
2022-09-05T11:04:49.523Z,56.04
2022-09-05T11:07:27.879Z,56.54
2022-09-05T11:10:04.286Z,57.02
2022-09-05T11:12:43.463Z,56.74
2022-09-05T11:15:26.739Z,56.61
2022-09-05T11:18:00.663Z,54.65
2022-09-05T11:20:40.007Z,55.58
2022-09-05T11:23:11.714Z,55.37
2022-09-05T11:25:40.635Z,54.97
2022-09-05T11:28:15.679Z,55.09
2022-09-05T11:30:48.418Z,53.61
2022-09-05T11:39:52.354Z,52.89
2022-09-05T11:39:54.438Z,51.72
2022-09-05T11:40:24.849Z,51.42
2022-09-05T11:42:58.488Z,52.51
2022-09-05T11:46:09.832Z,52.06
2022-09-05T11:49:06.298Z,51.02
2022-09-05T11:52:08.866Z,51.39
2022-09-05T11:55:09.435Z,50.55
2022-09-05T11:58:01.880Z,50.21
2022-09-05T12:01:43.380Z,50.18
2022-09-05T12:03:59.187Z,49.48
2022-09-05T12:06:47.997Z,48.71
2022-09-05T12:09:26.833Z,48.76
2022-09-05T12:12:18.713Z,48.71
2022-09-05T12:15:11.862Z,45.99
2022-09-05T12:17:50.476Z,45.82
2022-09-05T12:20:25.546Z,49.25
2022-09-05T12:22:57.573Z,47.91
2022-09-05T12:27:41.872Z,49.12
2022-09-05T12:29:26.735Z,48.20
2022-09-05T12:32:52.367Z,46.99
2022-09-05T12:36:12.760Z,46.94
2022-09-05T12:39:40.254Z,49.00
2022-09-05T12:41:39.083Z,45.95
2022-09-05T12:43:54.269Z,45.44
2022-09-05T12:45:45.451Z,45.50
2022-09-05T12:48:17.976Z,47.62
2022-09-05T12:50:55.815Z,46.51
2022-09-05T12:53:24.813Z,47.02
2022-09-05T12:56:15.828Z,44.81
2022-09-05T13:02:55.443Z,45.25
2022-09-05T13:03:14.116Z,45.22
2022-09-05T13:04:31.782Z,46.67
2022-09-05T13:07:03.131Z,43.79
2022-09-05T13:10:48.893Z,45.23
2022-09-05T13:14:48.412Z,43.36
2022-09-05T13:15:26.340Z,44.96
2022-09-05T13:17:59.379Z,42.91
2022-09-05T13:20:28.458Z,41.36
2022-09-05T13:22:55.324Z,42.93
2022-09-05T13:25:26.092Z,44.55
2022-09-05T13:27:59.555Z,43.18
2022-09-05T13:37:14.846Z,42.76
2022-09-05T13:38:03.039Z,41.64
2022-09-05T13:38:03.936Z,41.02
2022-09-05T13:39:02.091Z,42.56
2022-09-05T13:41:34.796Z,45.45
2022-09-05T13:44:25.330Z,43.05
2022-09-05T13:47:00.413Z,41.79
2022-09-05T13:49:32.217Z,41.33
2022-09-05T13:52:12.446Z,41.34
2022-09-05T13:54:46.467Z,43.05
2022-09-05T13:57:33.255Z,42.75
2022-09-05T14:00:26.886Z,41.31
2022-09-05T14:03:37.829Z,41.98
2022-09-05T14:06:36.615Z,43.75
2022-09-05T14:09:39.959Z,42.05
2022-09-05T14:12:16.999Z,42.54
2022-09-05T14:17:54.464Z,42.56
2022-09-05T14:20:25.362Z,42.71
2022-09-05T14:22:59.076Z,42.05
2022-09-05T14:25:28.295Z,43.48
2022-09-05T14:28:00.735Z,41.21
2022-09-05T14:31:58.565Z,41.94
2022-09-05T14:37:41.493Z,39.79
2022-09-05T14:37:48.904Z,39.63
2022-09-05T14:39:40.869Z,41.40
2022-09-05T14:42:37.232Z,41.12
2022-09-05T14:45:22.886Z,41.76
2022-09-05T14:48:13.331Z,41.68
2022-09-05T14:50:54.587Z,41.06
2022-09-05T14:57:23.233Z,42.07
2022-09-05T15:02:48.568Z,41.45
2022-09-05T15:02:52.811Z,40.77
2022-09-05T15:04:52.119Z,41.49
2022-09-05T15:07:20.752Z,43.54
2022-09-05T15:12:16.060Z,42.44
2022-09-05T15:12:49.441Z,42.30
2022-09-05T15:15:23.269Z,42.76
2022-09-05T15:17:55.259Z,42.93
2022-09-05T15:20:32.451Z,40.96
2022-09-05T15:23:11.077Z,41.08
2022-09-05T15:25:45.995Z,41.12
2022-09-05T15:28:19.444Z,42.56
2022-09-05T15:30:56.199Z,42.81
2022-09-05T15:33:25.765Z,42.59
2022-09-05T15:35:55.520Z,40.82
2022-09-05T15:38:28.592Z,44.23
2022-09-05T15:41:15.313Z,42.97
2022-09-05T15:43:51.534Z,39.90
2022-09-05T15:46:23.838Z,40.35
2022-09-05T15:48:57.003Z,40.50
2022-09-05T15:51:53.733Z,41.71
2022-09-05T15:54:38.515Z,40.97
2022-09-05T15:57:08.658Z,42.05
2022-09-05T15:59:40.099Z,39.74
2022-09-05T16:02:09.161Z,41.48
2022-09-05T16:10:27.037Z,43.20
2022-09-05T16:10:35.028Z,43.71
2022-09-05T16:10:37.064Z,42.64
2022-09-05T16:13:11.489Z,43.70
2022-09-05T16:23:19.109Z,43.36
2022-09-05T16:23:19.170Z,43.58
2022-09-05T16:23:26.366Z,42.88
2022-09-05T16:24:24.670Z,44.34
2022-09-05T16:27:05.679Z,46.10
2022-09-05T16:29:38.847Z,45.83
2022-09-05T16:32:21.461Z,46.16
2022-09-05T16:34:56.035Z,45.70
2022-09-05T16:37:31.946Z,45.37
2022-09-05T16:40:07.205Z,48.65
2022-09-05T16:42:47.234Z,47.05
2022-09-05T16:45:24.134Z,46.04
2022-09-05T16:48:03.379Z,46.56
2022-09-05T16:50:34.877Z,49.19
2022-09-05T16:53:20.944Z,49.17
2022-09-05T16:55:57.709Z,49.23
2022-09-05T16:58:30.487Z,50.10
2022-09-05T17:01:12.757Z,50.64
2022-09-05T17:03:52.572Z,51.75
2022-09-05T17:06:26.210Z,51.80
2022-09-05T17:08:56.788Z,52.29
2022-09-05T17:11:54.569Z,53.15
2022-09-05T17:14:33.898Z,54.48
2022-09-05T17:17:19.695Z,55.30
2022-09-05T17:20:05.716Z,56.52
2022-09-05T17:25:58.523Z,57.41
2022-09-05T17:29:31.937Z,58.24
2022-09-05T17:29:41.402Z,58.92
2022-09-05T17:31:53.577Z,60.07
2022-09-05T17:34:45.965Z,60.71
2022-09-05T17:37:36.637Z,61.35
2022-09-05T17:40:22.175Z,62.48
2022-09-05T17:42:56.424Z,62.88
2022-09-05T17:45:28.995Z,63.09
2022-09-05T17:47:56.295Z,63.56
2022-09-05T17:50:44.646Z,64.26
2022-09-05T17:53:26.916Z,65.02
2022-09-05T17:56:11.432Z,65.42
2022-09-05T17:58:50.231Z,65.64
2022-09-05T18:01:20.607Z,66.65
2022-09-05T18:04:16.733Z,67.54
2022-09-05T18:06:52.815Z,68.37
2022-09-05T18:10:01.496Z,68.15
2022-09-05T18:13:13.347Z,68.68
2022-09-05T18:16:02.346Z,68.62
2022-09-05T18:19:28.348Z,68.70
2022-09-05T18:21:23.149Z,68.64
2022-09-05T18:23:58.034Z,69.31
2022-09-05T18:26:27.068Z,69.61
2022-09-05T18:28:59.654Z,69.86
2022-09-05T18:32:01.580Z,71.18
2022-09-05T18:34:46.650Z,71.72
2022-09-05T18:37:58.962Z,71.07
2022-09-05T18:40:37.002Z,71.69
2022-09-05T18:43:10.741Z,71.05
2022-09-05T18:45:38.602Z,71.35
2022-09-05T18:48:30.036Z,71.43
2022-09-05T18:51:13.050Z,71.27
2022-09-05T18:53:47.111Z,71.87
2022-09-05T18:56:20.642Z,72.20
2022-09-05T18:58:54.217Z,71.79
2022-09-05T19:01:30.872Z,72.55
2022-09-05T19:04:01.887Z,72.33
2022-09-05T19:06:36.946Z,72.15
2022-09-05T19:09:07.328Z,71.86
2022-09-05T19:11:38.771Z,72.83
2022-09-05T19:14:31.938Z,72.37
2022-09-05T19:17:07.521Z,73.23
2022-09-05T19:20:31.013Z,73.34
2022-09-05T19:23:10.185Z,73.56
2022-09-05T19:25:41.215Z,74.28
2022-09-05T19:36:11.851Z,74.07
2022-09-05T19:36:49.644Z,74.66
2022-09-05T19:36:57.051Z,74.05
2022-09-05T19:37:03.964Z,74.94
2022-09-05T19:42:29.871Z,75.42
2022-09-05T19:47:40.058Z,76.12
2022-09-05T19:47:41.504Z,76.25
2022-09-05T19:48:07.840Z,77.24
2022-09-05T19:50:34.986Z,77.20
2022-09-05T19:53:06.957Z,77.15
2022-09-05T19:55:37.771Z,77.74
2022-09-05T19:58:19.278Z,77.72
2022-09-05T20:01:00.590Z,78.15
2022-09-05T20:03:39.387Z,78.83
2022-09-05T20:06:26.676Z,79.09
2022-09-05T20:09:08.815Z,78.53
2022-09-05T20:11:45.328Z,79.07
2022-09-05T20:14:18.834Z,79.05
2022-09-05T20:16:46.562Z,79.06
2022-09-05T20:19:25.515Z,79.55
2022-09-05T20:21:57.305Z,79.77
2022-09-05T20:24:24.129Z,80.53
2022-09-05T20:26:52.370Z,80.79
2022-09-05T20:29:44.864Z,81.48
2022-09-05T20:32:17.560Z,81.50
2022-09-05T20:38:17.745Z,81.89
2022-09-05T20:43:22.293Z,81.92
2022-09-05T20:43:22.466Z,82.08
2022-09-05T20:43:46.756Z,82.32
2022-09-05T20:48:40.848Z,82.24
2022-09-05T20:54:06.926Z,81.63
2022-09-05T20:54:26.937Z,81.89
2022-09-05T20:54:55.192Z,81.55
2022-09-05T20:57:29.726Z,81.63
2022-09-05T21:00:02.410Z,81.47
2022-09-05T21:02:33.160Z,81.33
2022-09-05T21:05:19.950Z,80.96
2022-09-05T21:07:48.632Z,80.84
2022-09-05T21:10:26.323Z,80.67
2022-09-05T21:12:55.516Z,81.13
2022-09-05T21:15:52.063Z,81.24
2022-09-05T21:18:16.165Z,81.85
2022-09-05T21:20:51.846Z,81.50
2022-09-05T21:23:27.566Z,81.71
2022-09-05T21:25:55.738Z,81.16
2022-09-05T21:28:36.720Z,81.72
2022-09-05T21:31:15.144Z,81.07
2022-09-05T21:33:46.179Z,81.40
2022-09-05T21:36:15.338Z,81.26
2022-09-05T21:38:43.235Z,81.40
2022-09-05T21:41:14.393Z,81.60
2022-09-05T21:47:41.946Z,81.43
2022-09-05T21:47:44.481Z,82.02
2022-09-05T21:49:17.795Z,81.20
2022-09-05T21:51:48.231Z,81.23
2022-09-05T21:59:17.233Z,81.48
2022-09-05T21:59:25.703Z,81.84
2022-09-05T21:59:52.155Z,82.05
2022-09-05T22:02:19.316Z,82.03
2022-09-05T22:04:47.415Z,81.91
2022-09-05T22:07:14.434Z,82.18
2022-09-05T22:09:41.101Z,82.36
2022-09-05T22:12:30.100Z,82.33
2022-09-05T22:14:55.587Z,82.97
2022-09-05T22:17:23.317Z,83.08
2022-09-05T22:19:51.634Z,83.44
2022-09-05T22:22:19.092Z,84.07
2022-09-05T22:24:49.763Z,84.31
2022-09-05T22:27:17.170Z,83.11
2022-09-05T22:29:43.947Z,83.79
2022-09-05T22:32:15.385Z,84.96
2022-09-05T22:34:42.043Z,84.52
2022-09-05T22:37:10.036Z,83.66
2022-09-05T22:39:38.128Z,83.18
2022-09-05T22:42:06.051Z,84.13
2022-09-05T22:44:38.267Z,84.34
2022-09-05T22:47:05.465Z,83.86
2022-09-05T22:49:32.133Z,84.08
2022-09-05T22:51:58.714Z,83.87
2022-09-05T22:54:26.641Z,83.50
2022-09-05T22:56:53.196Z,84.54
2022-09-05T22:59:19.784Z,84.72
2022-09-05T23:01:46.468Z,84.79
2022-09-05T23:04:13.216Z,85.57
2022-09-05T23:06:39.826Z,85.40
2022-09-05T23:09:06.688Z,84.94
2022-09-05T23:11:35.279Z,84.98
2022-09-05T23:14:01.963Z,85.74
2022-09-05T23:16:29.042Z,85.37
2022-09-05T23:18:55.615Z,85.37
2022-09-05T23:21:22.200Z,85.08
2022-09-05T23:23:48.809Z,84.13
2022-09-05T23:26:16.111Z,84.33
2022-09-05T23:28:44.500Z,83.84
2022-09-05T23:31:11.925Z,83.74
2022-09-05T23:33:40.057Z,83.89
2022-09-05T23:36:08.904Z,83.76
2022-09-05T23:38:36.121Z,83.98
2022-09-05T23:41:04.163Z,83.75
2022-09-05T23:43:31.079Z,83.97
2022-09-05T23:45:59.612Z,84.09
2022-09-05T23:48:26.976Z,83.54
2022-09-05T23:50:54.487Z,83.68
2022-09-05T23:53:21.792Z,84.09
2022-09-05T23:55:48.585Z,84.01
2022-09-05T23:58:15.657Z,84.60
